sensor_id;sensor_type;location;lat;lon;timestamp;pressure;altitude;pressure_sealevel;temperature;humidity
32486;BME280;18935;52.236;21.134;2022-10-13T00:01:59;78291.44;;;-143.48;85.42
32486;BME280;18935;52.236;21.134;2022-10-13T00:04:26;78295.44;;;-143.48;85.42
32486;BME280;18935;52.236;21.134;2022-10-13T00:06:52;78297.44;;;-143.48;85.09
32486;BME280;18935;52.236;21.134;2022-10-13T00:09:17;78299.44;;;-143.48;84.91
32486;BME280;18935;52.236;21.134;2022-10-13T00:11:42;78295.44;;;-143.48;85.24
32486;BME280;18935;52.236;21.134;2022-10-13T00:14:11;78317.41;;;-143.48;85.69
32486;BME280;18935;52.236;21.134;2022-10-13T00:16:37;78331.41;;;-143.48;86.33
32486;BME280;18935;52.236;21.134;2022-10-13T00:19:02;78331.41;;;-143.48;86.78
32486;BME280;18935;52.236;21.134;2022-10-13T00:21:28;78331.41;;;-143.48;86.44
32486;BME280;18935;52.236;21.134;2022-10-13T00:23:54;78333.41;;;-143.48;86.49
32486;BME280;18935;52.236;21.134;2022-10-13T00:26:21;78333.41;;;-143.48;86.59
32486;BME280;18935;52.236;21.134;2022-10-13T00:28:47;78329.41;;;-143.48;86.56
32486;BME280;18935;52.236;21.134;2022-10-13T00:31:24;78325.41;;;-143.48;86.53
32486;BME280;18935;52.236;21.134;2022-10-13T00:33:50;78329.41;;;-143.48;86.54
32486;BME280;18935;52.236;21.134;2022-10-13T00:36:17;78325.41;;;-143.48;86.19
32486;BME280;18935;52.236;21.134;2022-10-13T00:38:43;78345.38;;;-143.48;86.46
32486;BME280;18935;52.236;21.134;2022-10-13T00:41:09;78347.38;;;-143.48;86.71
32486;BME280;18935;52.236;21.134;2022-10-13T00:44:03;78329.41;;;-143.48;86.25
32486;BME280;18935;52.236;21.134;2022-10-13T00:46:34;78329.41;;;-143.48;85.97
32486;BME280;18935;52.236;21.134;2022-10-13T00:49:07;78331.41;;;-143.48;86.04
32486;BME280;18935;52.236;21.134;2022-10-13T00:51:38;78331.41;;;-143.48;85.94
32486;BME280;18935;52.236;21.134;2022-10-13T00:54:04;78345.38;;;-143.48;85.92
32486;BME280;18935;52.236;21.134;2022-10-13T00:56:31;78359.38;;;-143.48;86.46
32486;BME280;18935;52.236;21.134;2022-10-13T00:58:58;78357.38;;;-143.48;86.74
32486;BME280;18935;52.236;21.134;2022-10-13T01:01:24;78349.38;;;-143.48;86.41
32486;BME280;18935;52.236;21.134;2022-10-13T01:03:49;78345.38;;;-143.48;86.13
32486;BME280;18935;52.236;21.134;2022-10-13T01:06:16;78343.38;;;-143.48;86.53
32486;BME280;18935;52.236;21.134;2022-10-13T01:08:41;78361.38;;;-143.48;86.85
32486;BME280;18935;52.236;21.134;2022-10-13T01:11:29;78359.38;;;-143.48;87.33
32486;BME280;18935;52.236;21.134;2022-10-13T01:14:07;78343.38;;;-143.48;86.86
32486;BME280;18935;52.236;21.134;2022-10-13T01:22:38;78357.38;;;-143.48;86.92
32486;BME280;18935;52.236;21.134;2022-10-13T01:34:22;78359.38;;;-143.48;88.08
32486;BME280;18935;52.236;21.134;2022-10-13T01:39:33;78381.34;;;-143.48;88.21
32486;BME280;18935;52.236;21.134;2022-10-13T01:42:04;78381.34;;;-143.48;87.90
32486;BME280;18935;52.236;21.134;2022-10-13T01:44:38;78383.34;;;-143.48;87.20
32486;BME280;18935;52.236;21.134;2022-10-13T01:47:06;78393.34;;;-143.48;87.40
32486;BME280;18935;52.236;21.134;2022-10-13T01:49:34;78405.34;;;-143.48;87.73
32486;BME280;18935;52.236;21.134;2022-10-13T01:52:14;78391.34;;;-143.48;87.27
32486;BME280;18935;52.236;21.134;2022-10-13T01:54:40;78387.34;;;-143.48;86.66
32486;BME280;18935;52.236;21.134;2022-10-13T01:57:35;78407.34;;;-143.48;86.81
32486;BME280;18935;52.236;21.134;2022-10-13T02:00:06;78433.31;;;-143.48;87.73
32486;BME280;18935;52.236;21.134;2022-10-13T02:05:40;78411.34;;;-143.48;88.61
32486;BME280;18935;52.236;21.134;2022-10-13T02:08:35;78405.34;;;-143.48;88.84
32486;BME280;18935;52.236;21.134;2022-10-13T02:11:13;78389.34;;;-143.48;88.13
32486;BME280;18935;52.236;21.134;2022-10-13T02:13:44;78381.34;;;-143.48;87.18
32486;BME280;18935;52.236;21.134;2022-10-13T02:16:11;78381.34;;;-143.48;86.82
32486;BME280;18935;52.236;21.134;2022-10-13T02:18:37;78387.34;;;-143.48;87.17
32486;BME280;18935;52.236;21.134;2022-10-13T02:21:03;78377.38;;;-143.48;86.79
32486;BME280;18935;52.236;21.134;2022-10-13T02:23:29;78393.34;;;-143.48;86.69
32486;BME280;18935;52.236;21.134;2022-10-13T02:25:56;78389.34;;;-143.48;86.79
32486;BME280;18935;52.236;21.134;2022-10-13T02:28:23;78401.34;;;-143.48;87.11
32486;BME280;18935;52.236;21.134;2022-10-13T02:30:48;78413.34;;;-143.48;87.31
32486;BME280;18935;52.236;21.134;2022-10-13T02:33:14;78425.31;;;-143.48;87.96
32486;BME280;18935;52.236;21.134;2022-10-13T02:35:41;78421.34;;;-143.48;88.36
32486;BME280;18935;52.236;21.134;2022-10-13T02:38:06;78421.34;;;-143.48;87.83
32486;BME280;18935;52.236;21.134;2022-10-13T02:40:31;78405.34;;;-143.48;86.65
32486;BME280;18935;52.236;21.134;2022-10-13T02:42:57;78421.34;;;-143.48;86.95
32486;BME280;18935;52.236;21.134;2022-10-13T02:45:22;78435.31;;;-143.48;87.29
32486;BME280;18935;52.236;21.134;2022-10-13T02:47:48;78445.31;;;-143.48;87.55
32486;BME280;18935;52.236;21.134;2022-10-13T02:50:13;78427.31;;;-143.48;87.59
32486;BME280;18935;52.236;21.134;2022-10-13T02:52:38;78411.34;;;-143.48;87.31
32486;BME280;18935;52.236;21.134;2022-10-13T02:55:05;78417.34;;;-143.48;87.21
32486;BME280;18935;52.236;21.134;2022-10-13T02:57:30;78417.34;;;-143.48;87.40
32486;BME280;18935;52.236;21.134;2022-10-13T02:59:55;78429.31;;;-143.48;87.68
32486;BME280;18935;52.236;21.134;2022-10-13T03:02:20;78437.31;;;-143.48;88.14
32486;BME280;18935;52.236;21.134;2022-10-13T03:04:47;78433.31;;;-143.48;88.48
32486;BME280;18935;52.236;21.134;2022-10-13T03:07:13;78429.31;;;-143.48;88.27
32486;BME280;18935;52.236;21.134;2022-10-13T03:09:38;78419.34;;;-143.48;87.47
32486;BME280;18935;52.236;21.134;2022-10-13T03:12:04;78419.34;;;-143.48;87.26
32486;BME280;18935;52.236;21.134;2022-10-13T03:14:29;78427.31;;;-143.48;87.23
32486;BME280;18935;52.236;21.134;2022-10-13T03:16:54;78417.34;;;-143.48;86.47
32486;BME280;18935;52.236;21.134;2022-10-13T03:19:19;78425.31;;;-143.48;86.21
32486;BME280;18935;52.236;21.134;2022-10-13T03:21:45;78437.31;;;-143.48;86.45
32486;BME280;18935;52.236;21.134;2022-10-13T03:24:10;78435.31;;;-143.48;86.22
32486;BME280;18935;52.236;21.134;2022-10-13T03:26:36;78445.31;;;-143.48;86.19
32486;BME280;18935;52.236;21.134;2022-10-13T03:29:01;78457.31;;;-143.48;86.87
32486;BME280;18935;52.236;21.134;2022-10-13T03:31:27;78451.31;;;-143.48;86.95
32486;BME280;18935;52.236;21.134;2022-10-13T03:33:53;78449.31;;;-143.48;86.88
32486;BME280;18935;52.236;21.134;2022-10-13T03:36:18;78455.31;;;-143.48;86.95
32486;BME280;18935;52.236;21.134;2022-10-13T03:38:44;78457.31;;;-143.48;87.14
32486;BME280;18935;52.236;21.134;2022-10-13T03:41:14;78461.31;;;-143.48;87.35
32486;BME280;18935;52.236;21.134;2022-10-13T03:43:40;78449.31;;;-143.48;86.78
32486;BME280;18935;52.236;21.134;2022-10-13T03:46:06;78453.31;;;-143.48;86.45
32486;BME280;18935;52.236;21.134;2022-10-13T03:48:34;78473.28;;;-143.48;86.92
32486;BME280;18935;52.236;21.134;2022-10-13T03:51:03;78473.28;;;-143.48;87.03
32486;BME280;18935;52.236;21.134;2022-10-13T03:53:29;78469.28;;;-143.48;87.04
32486;BME280;18935;52.236;21.134;2022-10-13T03:55:55;78473.28;;;-143.48;87.30
32486;BME280;18935;52.236;21.134;2022-10-13T03:58:22;78465.31;;;-143.48;86.70
32486;BME280;18935;52.236;21.134;2022-10-13T04:00:49;78465.31;;;-143.48;86.86
32486;BME280;18935;52.236;21.134;2022-10-13T04:03:15;78465.31;;;-143.48;86.61
32486;BME280;18935;52.236;21.134;2022-10-13T04:05:41;78453.31;;;-143.48;86.42
32486;BME280;18935;52.236;21.134;2022-10-13T04:08:06;78473.28;;;-143.48;86.69
32486;BME280;18935;52.236;21.134;2022-10-13T04:10:32;78479.28;;;-143.48;87.06
32486;BME280;18935;52.236;21.134;2022-10-13T04:12:57;78479.28;;;-143.48;87.35
32486;BME280;18935;52.236;21.134;2022-10-13T04:15:23;78491.28;;;-143.48;87.39
32486;BME280;18935;52.236;21.134;2022-10-13T04:17:48;78483.28;;;-143.48;87.42
32486;BME280;18935;52.236;21.134;2022-10-13T04:20:13;78487.28;;;-143.48;87.68
32486;BME280;18935;52.236;21.134;2022-10-13T04:22:39;78493.28;;;-143.48;88.11
32486;BME280;18935;52.236;21.134;2022-10-13T04:25:05;78481.28;;;-143.48;88.00
32486;BME280;18935;52.236;21.134;2022-10-13T04:27:31;78477.28;;;-143.48;87.78
32486;BME280;18935;52.236;21.134;2022-10-13T04:29:56;78477.28;;;-143.48;87.61
32486;BME280;18935;52.236;21.134;2022-10-13T04:32:22;78485.28;;;-143.48;88.11
32486;BME280;18935;52.236;21.134;2022-10-13T04:34:47;78495.28;;;-143.48;87.92
32486;BME280;18935;52.236;21.134;2022-10-13T04:37:12;78503.28;;;-143.48;88.23
32486;BME280;18935;52.236;21.134;2022-10-13T04:39:38;78509.28;;;-143.48;88.45
32486;BME280;18935;52.236;21.134;2022-10-13T04:42:03;78515.25;;;-143.48;88.44
32486;BME280;18935;52.236;21.134;2022-10-13T04:44:28;78523.25;;;-143.48;88.80
32486;BME280;18935;52.236;21.134;2022-10-13T04:46:55;78519.25;;;-143.48;88.45
32486;BME280;18935;52.236;21.134;2022-10-13T04:49:20;78529.25;;;-143.48;88.04
32486;BME280;18935;52.236;21.134;2022-10-13T04:51:45;78527.25;;;-143.48;88.04
32486;BME280;18935;52.236;21.134;2022-10-13T04:54:11;78537.25;;;-143.48;87.82
32486;BME280;18935;52.236;21.134;2022-10-13T04:56:36;78541.25;;;-143.48;88.17
32486;BME280;18935;52.236;21.134;2022-10-13T04:59:03;78559.22;;;-143.48;87.94
32486;BME280;18935;52.236;21.134;2022-10-13T05:01:30;78557.22;;;-143.48;88.29
32486;BME280;18935;52.236;21.134;2022-10-13T05:03:58;78545.25;;;-143.48;88.40
32486;BME280;18935;52.236;21.134;2022-10-13T05:06:26;78545.25;;;-143.48;88.04
32486;BME280;18935;52.236;21.134;2022-10-13T05:08:51;78545.25;;;-143.48;87.88
32486;BME280;18935;52.236;21.134;2022-10-13T05:11:17;78545.25;;;-143.48;87.60
32486;BME280;18935;52.236;21.134;2022-10-13T05:13:44;78529.25;;;-143.48;87.18
32486;BME280;18935;52.236;21.134;2022-10-13T05:16:11;78517.25;;;-143.48;86.72
32486;BME280;18935;52.236;21.134;2022-10-13T05:18:37;78521.25;;;-143.48;86.42
32486;BME280;18935;52.236;21.134;2022-10-13T05:21:11;78521.25;;;-143.48;86.64
32486;BME280;18935;52.236;21.134;2022-10-13T05:23:37;78513.25;;;-143.48;86.19
32486;BME280;18935;52.236;21.134;2022-10-13T05:26:09;78515.25;;;-143.48;85.82
32486;BME280;18935;52.236;21.134;2022-10-13T05:28:34;78513.25;;;-143.48;86.00
32486;BME280;18935;52.236;21.134;2022-10-13T05:31:14;78519.25;;;-143.48;86.00
32486;BME280;18935;52.236;21.134;2022-10-13T05:33:40;78525.25;;;-143.48;86.13
32486;BME280;18935;52.236;21.134;2022-10-13T05:36:08;78527.25;;;-143.48;86.33
32486;BME280;18935;52.236;21.134;2022-10-13T05:38:33;78523.25;;;-143.48;86.27
32486;BME280;18935;52.236;21.134;2022-10-13T05:41:03;78523.25;;;-143.48;86.61
32486;BME280;18935;52.236;21.134;2022-10-13T05:43:30;78523.25;;;-143.48;86.59
32486;BME280;18935;52.236;21.134;2022-10-13T05:45:56;78523.25;;;-143.48;86.66
32486;BME280;18935;52.236;21.134;2022-10-13T05:48:21;78525.25;;;-143.48;87.07
32486;BME280;18935;52.236;21.134;2022-10-13T05:50:46;78529.25;;;-143.48;87.45
32486;BME280;18935;52.236;21.134;2022-10-13T05:53:12;78517.25;;;-143.48;87.30
32486;BME280;18935;52.236;21.134;2022-10-13T05:55:37;78513.25;;;-143.48;87.61
32486;BME280;18935;52.236;21.134;2022-10-13T05:58:03;78515.25;;;-143.48;87.83
32486;BME280;18935;52.236;21.134;2022-10-13T06:00:28;78505.28;;;-143.48;87.71
32486;BME280;18935;52.236;21.134;2022-10-13T06:03:06;78497.28;;;-143.48;87.89
32486;BME280;18935;52.236;21.134;2022-10-13T06:05:33;78485.28;;;-143.48;87.70
32486;BME280;18935;52.236;21.134;2022-10-13T06:07:58;78485.28;;;-143.48;88.14
32486;BME280;18935;52.236;21.134;2022-10-13T06:10:24;78473.28;;;-143.48;88.19
32486;BME280;18935;52.236;21.134;2022-10-13T06:12:50;78453.31;;;-143.48;88.05
32486;BME280;18935;52.236;21.134;2022-10-13T06:15:15;78445.31;;;-143.48;88.20
32486;BME280;18935;52.236;21.134;2022-10-13T06:17:41;78439.31;;;-143.48;88.32
32486;BME280;18935;52.236;21.134;2022-10-13T06:20:07;78433.31;;;-143.48;88.10
32486;BME280;18935;52.236;21.134;2022-10-13T06:22:34;78425.31;;;-143.48;88.25
32486;BME280;18935;52.236;21.134;2022-10-13T06:24:59;78419.34;;;-143.48;87.92
32486;BME280;18935;52.236;21.134;2022-10-13T06:27:25;78421.34;;;-143.48;88.47
32486;BME280;18935;52.236;21.134;2022-10-13T06:29:50;78405.34;;;-143.48;88.41
32486;BME280;18935;52.236;21.134;2022-10-13T06:32:16;78393.34;;;-143.48;88.05
32486;BME280;18935;52.236;21.134;2022-10-13T06:34:41;78387.34;;;-143.48;87.93
32486;BME280;18935;52.236;21.134;2022-10-13T06:37:06;78381.34;;;-143.48;88.37
32486;BME280;18935;52.236;21.134;2022-10-13T06:39:32;78381.34;;;-143.48;88.69
32486;BME280;18935;52.236;21.134;2022-10-13T06:41:57;78373.38;;;-143.48;88.91
32486;BME280;18935;52.236;21.134;2022-10-13T06:44:22;78355.38;;;-143.48;89.39
32486;BME280;18935;52.236;21.134;2022-10-13T06:46:48;78329.41;;;-143.48;88.91
32486;BME280;18935;52.236;21.134;2022-10-13T06:49:13;78323.41;;;-143.48;88.79
32486;BME280;18935;52.236;21.134;2022-10-13T06:51:39;78313.41;;;-143.48;89.15
32486;BME280;18935;52.236;21.134;2022-10-13T06:54:04;78285.44;;;-143.48;89.22
32486;BME280;18935;52.236;21.134;2022-10-13T06:56:32;78281.44;;;-143.48;89.46
32486;BME280;18935;52.236;21.134;2022-10-13T06:58:57;78261.44;;;-143.48;89.36
32486;BME280;18935;52.236;21.134;2022-10-13T07:01:23;78235.47;;;-143.48;89.23
32486;BME280;18935;52.236;21.134;2022-10-13T07:03:49;78209.50;;;-143.48;88.54
32486;BME280;18935;52.236;21.134;2022-10-13T07:06:16;78201.50;;;-143.48;88.54
32486;BME280;18935;52.236;21.134;2022-10-13T07:08:42;78181.50;;;-143.48;87.93
32486;BME280;18935;52.236;21.134;2022-10-13T07:11:13;78169.53;;;-143.48;87.61
32486;BME280;18935;52.236;21.134;2022-10-13T07:13:39;78151.53;;;-143.48;87.46
32486;BME280;18935;52.236;21.134;2022-10-13T07:16:05;78145.53;;;-143.48;87.41
32486;BME280;18935;52.236;21.134;2022-10-13T07:18:31;78135.56;;;-143.48;86.84
32486;BME280;18935;52.236;21.134;2022-10-13T07:20:58;78117.56;;;-143.48;87.88
32486;BME280;18935;52.236;21.134;2022-10-13T07:23:24;78077.59;;;-143.48;87.65
32486;BME280;18935;52.236;21.134;2022-10-13T07:25:49;78057.63;;;-143.48;85.62
32486;BME280;18935;52.236;21.134;2022-10-13T07:28:14;78051.63;;;-143.48;85.09
32486;BME280;18935;52.236;21.134;2022-10-13T07:30:40;78021.66;;;-143.48;84.55
32486;BME280;18935;52.236;21.134;2022-10-13T07:33:05;78009.66;;;-143.48;83.62
32486;BME280;18935;52.236;21.134;2022-10-13T07:35:31;77991.66;;;-143.48;83.37
32486;BME280;18935;52.236;21.134;2022-10-13T07:37:56;77973.69;;;-143.48;83.63
32486;BME280;18935;52.236;21.134;2022-10-13T07:40:22;77955.69;;;-143.48;82.33
32486;BME280;18935;52.236;21.134;2022-10-13T07:42:47;77923.72;;;-143.48;81.13
32486;BME280;18935;52.236;21.134;2022-10-13T07:45:13;77909.75;;;-143.48;80.91
32486;BME280;18935;52.236;21.134;2022-10-13T07:47:38;77891.75;;;-143.48;79.57
32486;BME280;18935;52.236;21.134;2022-10-13T07:50:04;77861.78;;;-143.48;78.99
32486;BME280;18935;52.236;21.134;2022-10-13T07:52:29;77853.78;;;-143.48;78.92
32486;BME280;18935;52.236;21.134;2022-10-13T07:54:54;77839.81;;;-143.48;78.37
32486;BME280;18935;52.236;21.134;2022-10-13T07:57:20;77829.81;;;-143.48;79.31
32486;BME280;18935;52.236;21.134;2022-10-13T07:59:46;77815.81;;;-143.48;78.80
32486;BME280;18935;52.236;21.134;2022-10-13T08:02:11;77791.84;;;-143.48;78.06
32486;BME280;18935;52.236;21.134;2022-10-13T08:04:36;77769.84;;;-143.48;77.38
32486;BME280;18935;52.236;21.134;2022-10-13T08:07:05;77733.88;;;-143.48;75.92
32486;BME280;18935;52.236;21.134;2022-10-13T08:09:30;77721.91;;;-143.48;75.45
32486;BME280;18935;52.236;21.134;2022-10-13T08:11:56;77701.91;;;-143.48;74.56
32486;BME280;18935;52.236;21.134;2022-10-13T08:14:21;77679.94;;;-143.48;74.44
32486;BME280;18935;52.236;21.134;2022-10-13T08:16:50;77665.94;;;-143.48;72.88
32486;BME280;18935;52.236;21.134;2022-10-13T08:19:15;77645.97;;;-143.48;72.47
32486;BME280;18935;52.236;21.134;2022-10-13T08:21:42;77624.00;;;-143.48;72.33
32486;BME280;18935;52.236;21.134;2022-10-13T08:24:13;77592.03;;;-143.48;70.90
32486;BME280;18935;52.236;21.134;2022-10-13T08:26:39;77580.03;;;-143.48;69.41
32486;BME280;18935;52.236;21.134;2022-10-13T08:29:04;77572.03;;;-143.48;68.73
32486;BME280;18935;52.236;21.134;2022-10-13T08:31:30;77552.06;;;-143.48;68.30
32486;BME280;18935;52.236;21.134;2022-10-13T08:33:55;77516.09;;;-143.48;67.04
32486;BME280;18935;52.236;21.134;2022-10-13T08:36:20;77492.13;;;-143.48;66.04
32486;BME280;18935;52.236;21.134;2022-10-13T08:38:48;77474.13;;;-143.48;64.66
32486;BME280;18935;52.236;21.134;2022-10-13T08:43:56;77346.25;;;-143.48;61.42
32486;BME280;18935;52.236;21.134;2022-10-13T08:46:34;77014.59;;;-143.48;54.22
32486;BME280;18935;52.236;21.134;2022-10-13T08:49:03;76355.38;;;-143.48;41.67
32486;BME280;18935;52.236;21.134;2022-10-13T08:51:30;75887.97;;;-143.48;33.63
32486;BME280;18935;52.236;21.134;2022-10-13T08:53:56;75548.47;;;-143.48;29.35
32486;BME280;18935;52.236;21.134;2022-10-13T08:56:26;75358.75;;;-143.48;27.37
32486;BME280;18935;52.236;21.134;2022-10-13T08:58:54;75550.47;;;-143.48;28.01
32486;BME280;18935;52.236;21.134;2022-10-13T09:01:32;75468.56;;;-143.48;27.75
32486;BME280;18935;52.236;21.134;2022-10-13T09:04:28;75418.66;;;-143.48;27.27
32486;BME280;18935;52.236;21.134;2022-10-13T09:07:06;75344.75;;;-143.48;26.64
32486;BME280;18935;52.236;21.134;2022-10-13T09:09:36;75234.94;;;-143.48;25.35
32486;BME280;18935;52.236;21.134;2022-10-13T09:12:02;75386.69;;;-143.48;26.38
32486;BME280;18935;52.236;21.134;2022-10-13T09:14:31;75654.31;;;-143.48;27.88
32486;BME280;18935;52.236;21.134;2022-10-13T09:17:12;75848.03;;;-143.48;29.39
32486;BME280;18935;52.236;21.134;2022-10-13T09:19:37;76055.75;;;-143.48;31.32
32486;BME280;18935;52.236;21.134;2022-10-13T09:27:53;76816.81;;;-143.48;39.77
32486;BME280;18935;52.236;21.134;2022-10-13T09:30:37;76870.75;;;-143.48;42.28
32486;BME280;18935;52.236;21.134;2022-10-13T09:35:29;76894.75;;;-143.48;43.27
32486;BME280;18935;52.236;21.134;2022-10-13T09:38:10;76934.69;;;-143.48;43.19
32486;BME280;18935;52.236;21.134;2022-10-13T09:40:36;76894.75;;;-143.48;42.17
32486;BME280;18935;52.236;21.134;2022-10-13T09:43:05;76870.75;;;-143.48;41.81
32486;BME280;18935;52.236;21.134;2022-10-13T09:45:34;76882.75;;;-143.48;42.07
32486;BME280;18935;52.236;21.134;2022-10-13T09:48:06;76850.78;;;-143.48;41.95
32486;BME280;18935;52.236;21.134;2022-10-13T09:50:36;76816.81;;;-143.48;42.82
32486;BME280;18935;52.236;21.134;2022-10-13T09:53:32;76742.91;;;-143.48;41.69
32486;BME280;18935;52.236;21.134;2022-10-13T09:56:18;76720.94;;;-143.48;41.01
32486;BME280;18935;52.236;21.134;2022-10-13T10:01:44;76651.00;;;-143.48;39.20
32486;BME280;18935;52.236;21.134;2022-10-13T10:04:17;76595.09;;;-143.48;38.73
32486;BME280;18935;52.236;21.134;2022-10-13T10:06:44;76579.09;;;-143.48;37.52
32486;BME280;18935;52.236;21.134;2022-10-13T10:09:26;76585.09;;;-143.48;37.65
32486;BME280;18935;52.236;21.134;2022-10-13T10:11:58;76539.16;;;-143.48;36.97
32486;BME280;18935;52.236;21.134;2022-10-13T10:14:36;76595.09;;;-143.48;36.67
32486;BME280;18935;52.236;21.134;2022-10-13T10:22:12;76437.28;;;-143.48;36.10
32486;BME280;18935;52.236;21.134;2022-10-13T10:25:36;76423.28;;;-143.48;36.30
32486;BME280;18935;52.236;21.134;2022-10-13T10:27:41;76423.28;;;-143.48;35.57
32486;BME280;18935;52.236;21.134;2022-10-13T10:30:17;76401.31;;;-143.48;35.36
32486;BME280;18935;52.236;21.134;2022-10-13T10:32:53;76411.31;;;-143.48;34.95
32486;BME280;18935;52.236;21.134;2022-10-13T10:35:43;76459.25;;;-143.48;35.58
32486;BME280;18935;52.236;21.134;2022-10-13T10:41:13;76311.44;;;-143.48;34.60
32486;BME280;18935;52.236;21.134;2022-10-13T10:43:51;76293.44;;;-143.48;34.81
32486;BME280;18935;52.236;21.134;2022-10-13T10:46:22;76273.47;;;-143.48;34.48
32486;BME280;18935;52.236;21.134;2022-10-13T10:48:48;76231.53;;;-143.48;34.05
32486;BME280;18935;52.236;21.134;2022-10-13T10:51:18;76217.53;;;-143.48;34.03
32486;BME280;18935;52.236;21.134;2022-10-13T10:56:36;76287.47;;;-143.48;33.81
32486;BME280;18935;52.236;21.134;2022-10-13T11:04:44;76183.59;;;-143.48;32.51
32486;BME280;18935;52.236;21.134;2022-10-13T11:17:26;76269.47;;;-143.48;33.62
32486;BME280;18935;52.236;21.134;2022-10-13T11:19:52;76245.50;;;-143.48;33.13
32486;BME280;18935;52.236;21.134;2022-10-13T11:22:35;76147.63;;;-143.48;33.25
32486;BME280;18935;52.236;21.134;2022-10-13T11:27:59;76163.63;;;-143.48;32.72
32486;BME280;18935;52.236;21.134;2022-10-13T11:30:45;76083.72;;;-143.48;32.26
32486;BME280;18935;52.236;21.134;2022-10-13T11:33:34;76115.69;;;-143.48;32.76
32486;BME280;18935;52.236;21.134;2022-10-13T11:41:32;76099.69;;;-143.48;32.17
32486;BME280;18935;52.236;21.134;2022-10-13T11:44:12;76111.69;;;-143.48;32.43
32486;BME280;18935;52.236;21.134;2022-10-13T11:52:33;76119.66;;;-143.48;32.18
32486;BME280;18935;52.236;21.134;2022-10-13T11:55:36;76187.59;;;-143.48;32.53
32486;BME280;18935;52.236;21.134;2022-10-13T11:58:28;76219.53;;;-143.48;32.92
32486;BME280;18935;52.236;21.134;2022-10-13T12:01:05;76179.59;;;-143.48;33.60
32486;BME280;18935;52.236;21.134;2022-10-13T12:03:36;76165.63;;;-143.48;33.15
32486;BME280;18935;52.236;21.134;2022-10-13T12:06:04;76103.69;;;-143.48;32.55
32486;BME280;18935;52.236;21.134;2022-10-13T12:08:33;76079.72;;;-143.48;31.92
32486;BME280;18935;52.236;21.134;2022-10-13T12:10:59;76111.69;;;-143.48;32.63
32486;BME280;18935;52.236;21.134;2022-10-13T12:13:31;76099.69;;;-143.48;32.10
32486;BME280;18935;52.236;21.134;2022-10-13T12:16:01;76147.63;;;-143.48;32.45
32486;BME280;18935;52.236;21.134;2022-10-13T12:18:31;76111.69;;;-143.48;32.99
32486;BME280;18935;52.236;21.134;2022-10-13T12:21:13;76183.59;;;-143.48;32.99
32486;BME280;18935;52.236;21.134;2022-10-13T12:23:39;76227.53;;;-143.48;34.01
32486;BME280;18935;52.236;21.134;2022-10-13T12:26:05;76155.63;;;-143.48;34.10
32486;BME280;18935;52.236;21.134;2022-10-13T12:28:55;76167.63;;;-143.48;33.84
32486;BME280;18935;52.236;21.134;2022-10-13T12:31:25;76269.47;;;-143.48;33.93
32486;BME280;18935;52.236;21.134;2022-10-13T12:34:33;76287.47;;;-143.48;34.46
32486;BME280;18935;52.236;21.134;2022-10-13T12:36:39;76287.47;;;-143.48;34.60
32486;BME280;18935;52.236;21.134;2022-10-13T12:39:09;76335.41;;;-143.48;35.21
32486;BME280;18935;52.236;21.134;2022-10-13T12:41:38;76275.47;;;-143.48;35.04
32486;BME280;18935;52.236;21.134;2022-10-13T12:44:06;76339.38;;;-143.48;35.14
32486;BME280;18935;52.236;21.134;2022-10-13T12:46:38;76415.28;;;-143.48;35.81
32486;BME280;18935;52.236;21.134;2022-10-13T12:49:21;76431.28;;;-143.48;35.88
32486;BME280;18935;52.236;21.134;2022-10-13T12:51:50;76427.28;;;-143.48;36.12
32486;BME280;18935;52.236;21.134;2022-10-13T12:56:45;76475.22;;;-143.48;37.80
32486;BME280;18935;52.236;21.134;2022-10-13T12:59:15;76525.16;;;-143.48;38.05
32486;BME280;18935;52.236;21.134;2022-10-13T13:01:42;76523.16;;;-143.48;38.89
32486;BME280;18935;52.236;21.134;2022-10-13T13:07:02;76517.16;;;-143.48;38.25
32486;BME280;18935;52.236;21.134;2022-10-13T13:09:31;76523.16;;;-143.48;38.49
32486;BME280;18935;52.236;21.134;2022-10-13T13:14:43;76595.09;;;-143.48;39.53
32486;BME280;18935;52.236;21.134;2022-10-13T13:19:41;76627.03;;;-143.48;40.32
32486;BME280;18935;52.236;21.134;2022-10-13T13:22:07;76649.00;;;-143.48;40.74
32486;BME280;18935;52.236;21.134;2022-10-13T13:24:33;76649.00;;;-143.48;40.77
32486;BME280;18935;52.236;21.134;2022-10-13T13:27:06;76665.00;;;-143.48;41.55
32486;BME280;18935;52.236;21.134;2022-10-13T13:29:35;76667.00;;;-143.48;41.31
32486;BME280;18935;52.236;21.134;2022-10-13T13:32:00;76680.97;;;-143.48;41.83
32486;BME280;18935;52.236;21.134;2022-10-13T13:34:25;76678.97;;;-143.48;42.14
32486;BME280;18935;52.236;21.134;2022-10-13T13:36:51;76678.97;;;-143.48;42.64
32486;BME280;18935;52.236;21.134;2022-10-13T13:39:16;76678.97;;;-143.48;42.42
32486;BME280;18935;52.236;21.134;2022-10-13T13:41:42;76686.97;;;-143.48;42.68
32486;BME280;18935;52.236;21.134;2022-10-13T13:44:08;76692.97;;;-143.48;42.74
32486;BME280;18935;52.236;21.134;2022-10-13T13:46:36;76722.94;;;-143.48;42.98
32486;BME280;18935;52.236;21.134;2022-10-13T13:49:01;76714.94;;;-143.48;43.46
32486;BME280;18935;52.236;21.134;2022-10-13T13:51:30;76720.94;;;-143.48;43.34
32486;BME280;18935;52.236;21.134;2022-10-13T13:53:55;76740.91;;;-143.48;44.04
32486;BME280;18935;52.236;21.134;2022-10-13T13:56:21;76726.94;;;-143.48;43.16
32486;BME280;18935;52.236;21.134;2022-10-13T13:58:46;76752.91;;;-143.48;44.31
32486;BME280;18935;52.236;21.134;2022-10-13T14:01:12;76770.88;;;-143.48;44.53
32486;BME280;18935;52.236;21.134;2022-10-13T14:03:38;76768.88;;;-143.48;44.70
32486;BME280;18935;52.236;21.134;2022-10-13T14:06:04;76762.88;;;-143.48;45.09